createdAt,value
2022-12-04T00:00:27.723Z,3.53
2022-12-04T00:03:29.906Z,3.44
2022-12-04T00:06:33.884Z,3.39
2022-12-04T00:09:36.530Z,3.53
2022-12-04T00:12:38.735Z,3.41
2022-12-04T00:15:43.841Z,3.45
2022-12-04T00:18:46.417Z,3.44
2022-12-04T00:21:50.124Z,3.42
2022-12-04T00:24:52.270Z,3.53
2022-12-04T00:27:54.460Z,3.50
2022-12-04T00:30:56.839Z,3.55
2022-12-04T00:34:00.397Z,3.62
2022-12-04T00:37:02.790Z,3.63
2022-12-04T00:40:05.633Z,3.48
2022-12-04T00:43:08.086Z,3.49
2022-12-04T00:46:10.397Z,3.53
2022-12-04T00:49:12.668Z,3.42
2022-12-04T00:52:15.130Z,3.36
2022-12-04T00:55:17.652Z,3.22
2022-12-04T00:58:19.835Z,3.27
2022-12-04T01:01:23.361Z,3.22
2022-12-04T01:04:25.629Z,3.07
2022-12-04T01:07:28.237Z,3.04
2022-12-04T01:10:30.399Z,2.97
2022-12-04T01:13:32.957Z,2.95
2022-12-04T01:16:38.396Z,2.88
2022-12-04T01:19:40.958Z,3.02
2022-12-04T01:22:43.410Z,2.90
2022-12-04T01:25:57.131Z,2.89
2022-12-04T01:28:59.358Z,2.94
2022-12-04T01:32:01.616Z,2.93
2022-12-04T01:35:04.053Z,3.03
2022-12-04T01:38:06.476Z,3.17
2022-12-04T01:41:09.994Z,3.20
2022-12-04T01:44:16.521Z,3.26
2022-12-04T01:47:18.668Z,3.26
2022-12-04T01:50:21.218Z,3.26
2022-12-04T01:53:23.464Z,3.17
2022-12-04T01:56:49.646Z,3.29
2022-12-04T02:00:00.512Z,3.20
2022-12-04T02:03:03.048Z,3.29
2022-12-04T02:06:05.870Z,3.27
2022-12-04T02:09:08.069Z,3.28
2022-12-04T02:12:33.188Z,3.09
2022-12-04T02:15:48.044Z,3.13
2022-12-04T02:18:59.028Z,3.18
2022-12-04T02:22:05.872Z,3.19
2022-12-04T02:25:32.076Z,2.93
2022-12-04T02:28:54.991Z,3.02
2022-12-04T02:32:08.014Z,2.91
2022-12-04T02:35:16.940Z,2.87
2022-12-04T02:38:36.555Z,3.00
2022-12-04T02:42:15.116Z,2.99
2022-12-04T02:45:23.785Z,3.05
2022-12-04T02:48:26.696Z,3.10
2022-12-04T02:51:32.461Z,3.14
2022-12-04T02:54:37.513Z,3.07
2022-12-04T02:57:42.821Z,3.05
2022-12-04T03:00:45.890Z,3.13
2022-12-04T03:04:03.425Z,2.97
2022-12-04T03:07:11.479Z,2.81
2022-12-04T03:10:17.983Z,2.82
2022-12-04T03:13:29.483Z,2.75
2022-12-04T03:16:32.813Z,2.63
2022-12-04T03:19:41.392Z,2.74
2022-12-04T03:22:46.601Z,2.57
2022-12-04T03:25:59.634Z,2.58
2022-12-04T03:29:09.334Z,2.35
2022-12-04T03:32:14.434Z,2.38
2022-12-04T03:35:31.331Z,2.38
2022-12-04T03:38:53.804Z,2.20
2022-12-04T03:41:58.209Z,2.38
2022-12-04T03:45:07.886Z,2.43
2022-12-04T03:48:32.021Z,2.45
2022-12-04T03:52:00.325Z,2.55
2022-12-04T03:55:23.607Z,2.60
2022-12-04T03:58:29.650Z,2.56
2022-12-04T04:01:35.264Z,2.46
2022-12-04T04:04:40.048Z,2.41
2022-12-04T04:07:46.820Z,2.50
2022-12-04T04:10:49.698Z,2.52
2022-12-04T04:14:37.422Z,2.50
2022-12-04T04:18:02.771Z,2.40
2022-12-04T04:21:24.023Z,2.53
2022-12-04T04:24:54.225Z,2.46
2022-12-04T04:27:58.485Z,2.51
2022-12-04T04:31:24.386Z,2.57
2022-12-04T04:34:49.729Z,2.46
2022-12-04T04:37:57.402Z,2.43
2022-12-04T04:41:06.175Z,2.50
2022-12-04T04:44:26.699Z,2.60
2022-12-04T04:47:40.105Z,2.56
2022-12-04T04:50:42.520Z,2.57
2022-12-04T04:53:50.234Z,2.70
2022-12-04T04:56:52.380Z,2.66
2022-12-04T04:59:55.655Z,2.70
2022-12-04T05:02:58.038Z,2.36
2022-12-04T05:06:00.306Z,2.42
2022-12-04T05:09:02.840Z,2.45
2022-12-04T05:12:05.103Z,2.47
2022-12-04T05:15:07.933Z,2.52
2022-12-04T05:18:10.221Z,2.41
2022-12-04T05:21:16.570Z,2.36
2022-12-04T05:24:18.725Z,2.37
2022-12-04T05:27:21.935Z,2.49
2022-12-04T05:30:24.134Z,2.15
2022-12-04T05:33:26.342Z,2.22
2022-12-04T05:36:28.752Z,2.14
2022-12-04T05:39:31.041Z,2.30
2022-12-04T05:42:33.205Z,2.16
2022-12-04T05:45:35.353Z,2.27
2022-12-04T05:48:37.561Z,2.29
2022-12-04T05:51:39.702Z,2.22
2022-12-04T05:54:41.927Z,2.26
2022-12-04T05:57:44.046Z,2.30
2022-12-04T06:00:46.191Z,2.22
2022-12-04T06:03:48.543Z,2.23
2022-12-04T06:06:50.787Z,2.29
2022-12-04T06:09:55.225Z,2.14
2022-12-04T06:12:58.147Z,2.18
2022-12-04T06:16:00.394Z,2.04
2022-12-04T06:19:08.640Z,1.96
2022-12-04T06:22:10.796Z,1.99
2022-12-04T06:25:12.958Z,2.17
2022-12-04T06:28:15.119Z,2.07
2022-12-04T06:31:19.052Z,2.17
2022-12-04T06:34:21.324Z,2.23
2022-12-04T06:37:24.667Z,2.12
2022-12-04T06:40:26.887Z,2.19
2022-12-04T06:43:29.148Z,2.16
2022-12-04T06:46:32.922Z,2.04
2022-12-04T06:49:36.184Z,2.20
2022-12-04T06:52:38.325Z,2.10
2022-12-04T06:55:40.509Z,1.97
2022-12-04T06:58:42.650Z,2.06
2022-12-04T07:01:44.813Z,2.13
2022-12-04T07:04:47.052Z,2.00
2022-12-04T07:07:49.287Z,2.02
2022-12-04T07:10:57.426Z,2.11
2022-12-04T07:14:01.720Z,2.08
2022-12-04T07:17:03.973Z,2.15
2022-12-04T07:20:06.895Z,2.16
2022-12-04T07:23:09.073Z,2.32
2022-12-04T07:26:13.229Z,2.21
2022-12-04T07:29:15.414Z,2.20
2022-12-04T07:32:17.645Z,2.19
2022-12-04T07:35:19.804Z,2.30
2022-12-04T07:38:21.968Z,2.34
2022-12-04T07:41:24.471Z,2.25
2022-12-04T07:44:26.630Z,2.26
2022-12-04T07:47:28.861Z,2.38
2022-12-04T07:50:31.001Z,2.33
2022-12-04T07:53:36.598Z,2.50
2022-12-04T07:56:38.767Z,2.41
2022-12-04T07:59:41.032Z,2.56
2022-12-04T08:02:43.151Z,2.57
2022-12-04T08:05:45.342Z,2.73
2022-12-04T08:08:48.121Z,2.75
2022-12-04T08:11:50.300Z,2.71
2022-12-04T08:14:52.514Z,2.76
2022-12-04T08:17:54.671Z,2.82
2022-12-04T08:21:23.987Z,2.96
2022-12-04T08:24:26.229Z,2.84
2022-12-04T08:27:28.393Z,2.94
2022-12-04T08:30:30.709Z,2.81
2022-12-04T08:33:33.482Z,2.86
2022-12-04T08:36:36.052Z,2.87
2022-12-04T08:39:38.370Z,2.79
2022-12-04T08:42:40.528Z,2.90
2022-12-04T08:45:42.899Z,2.99
2022-12-04T08:48:45.663Z,3.15
2022-12-04T08:51:48.001Z,3.18
2022-12-04T08:54:51.379Z,3.36
2022-12-04T08:57:55.446Z,3.37
2022-12-04T09:01:05.349Z,3.51
2022-12-04T09:04:08.639Z,3.49
2022-12-04T09:07:12.502Z,3.43
2022-12-04T09:10:15.251Z,3.49
2022-12-04T09:13:19.001Z,3.51
2022-12-04T09:16:25.564Z,3.59
2022-12-04T09:19:28.885Z,3.58
2022-12-04T09:22:57.772Z,3.53
2022-12-04T09:25:58.342Z,3.52
2022-12-04T09:29:04.690Z,3.57
2022-12-04T09:32:07.647Z,3.53
2022-12-04T09:35:10.595Z,3.54
2022-12-04T09:38:12.878Z,3.53
2022-12-04T09:41:37.044Z,3.65
2022-12-04T09:45:04.848Z,3.69
2022-12-04T09:48:09.225Z,3.80
2022-12-04T09:51:18.977Z,3.87
2022-12-04T09:54:24.020Z,3.90
2022-12-04T09:57:38.978Z,4.08
2022-12-04T10:00:43.269Z,4.10
2022-12-04T10:03:45.897Z,4.09
2022-12-04T10:06:53.750Z,4.02
2022-12-04T10:10:11.565Z,3.92
2022-12-04T10:13:57.601Z,4.16
2022-12-04T10:17:41.380Z,4.34
2022-12-04T10:21:08.180Z,4.32
2022-12-04T10:24:29.641Z,4.51
2022-12-04T10:27:36.759Z,4.68
2022-12-04T10:30:41.529Z,4.76
2022-12-04T10:34:05.836Z,4.96
2022-12-04T10:37:12.755Z,4.99
2022-12-04T10:40:25.328Z,5.08
2022-12-04T10:43:44.210Z,5.23
2022-12-04T10:46:47.299Z,5.26
2022-12-04T10:49:53.671Z,5.33
2022-12-04T10:52:56.806Z,5.32
2022-12-04T10:56:28.089Z,5.41
2022-12-04T10:59:30.542Z,5.49
2022-12-04T11:02:40.200Z,5.52
2022-12-04T11:05:55.415Z,5.53
2022-12-04T11:08:58.838Z,5.67
2022-12-04T11:12:20.139Z,5.64
2022-12-04T11:15:23.660Z,5.77
2022-12-04T11:18:28.390Z,5.62
2022-12-04T11:21:31.369Z,5.69
2022-12-04T11:24:36.394Z,5.95
2022-12-04T11:27:38.601Z,5.83
2022-12-04T11:30:40.930Z,5.92
2022-12-04T11:33:46.493Z,5.91
2022-12-04T11:36:54.303Z,5.80
2022-12-04T11:39:57.161Z,6.15
2022-12-04T11:43:16.333Z,6.25
2022-12-04T11:46:22.746Z,6.39
2022-12-04T11:49:26.593Z,6.47
2022-12-04T11:53:07.391Z,6.63
2022-12-04T11:56:16.874Z,6.80
2022-12-04T11:59:25.288Z,6.80
2022-12-04T12:02:55.641Z,6.86
2022-12-04T12:06:23.956Z,6.95
2022-12-04T12:09:29.199Z,6.90
2022-12-04T12:12:40.701Z,6.92
2022-12-04T12:16:11.158Z,6.83
2022-12-04T12:20:08.743Z,7.03
2022-12-04T12:23:20.785Z,6.97
2022-12-04T12:26:26.967Z,6.99
2022-12-04T12:29:29.027Z,7.10
2022-12-04T12:32:50.717Z,7.10
2022-12-04T12:36:11.482Z,7.13
2022-12-04T12:39:24.206Z,7.19
2022-12-04T12:42:36.047Z,7.21
2022-12-04T12:45:55.834Z,7.31
2022-12-04T12:49:18.209Z,7.11
2022-12-04T12:52:35.786Z,7.07
2022-12-04T12:55:44.700Z,7.13
2022-12-04T12:58:51.651Z,7.12
2022-12-04T13:02:11.217Z,6.89
2022-12-04T13:05:14.946Z,6.97
2022-12-04T13:08:23.312Z,6.97
2022-12-04T13:11:25.944Z,7.18
2022-12-04T13:14:28.337Z,7.19
2022-12-04T13:17:39.138Z,7.28
2022-12-04T13:20:50.863Z,7.26
2022-12-04T13:24:15.945Z,6.97
2022-12-04T13:27:39.642Z,7.07
2022-12-04T13:30:49.117Z,6.99
2022-12-04T13:34:00.384Z,7.03
2022-12-04T13:37:39.856Z,7.20
2022-12-04T13:40:51.654Z,7.15
2022-12-04T13:43:55.358Z,7.17
2022-12-04T13:47:00.735Z,7.11
2022-12-04T13:50:09.280Z,7.20
2022-12-04T13:53:38.167Z,7.12
2022-12-04T13:56:45.441Z,7.06
2022-12-04T13:59:49.127Z,6.97
2022-12-04T14:02:53.939Z,6.98
2022-12-04T14:05:56.446Z,6.97
2022-12-04T14:09:02.117Z,6.92
2022-12-04T14:12:07.125Z,6.82
2022-12-04T14:15:22.134Z,6.62
2022-12-04T14:18:29.515Z,6.75
2022-12-04T14:21:43.654Z,6.65
2022-12-04T14:24:46.118Z,6.70
2022-12-04T14:27:51.939Z,6.64
2022-12-04T14:31:25.812Z,6.54
2022-12-04T14:34:34.485Z,6.57
2022-12-04T14:37:41.208Z,6.47
2022-12-04T14:40:45.959Z,6.40
2022-12-04T14:43:49.980Z,6.22
2022-12-04T14:46:53.398Z,6.26
2022-12-04T14:50:28.408Z,6.26
2022-12-04T14:53:33.580Z,6.17
2022-12-04T14:56:54.766Z,6.19
2022-12-04T14:59:57.013Z,6.09
2022-12-04T15:03:00.222Z,5.99
2022-12-04T15:06:08.053Z,5.98
2022-12-04T15:09:37.329Z,6.09
2022-12-04T15:12:43.717Z,6.08
2022-12-04T15:15:47.071Z,5.96
2022-12-04T15:18:53.914Z,6.04
2022-12-04T15:21:56.076Z,6.03
2022-12-04T15:24:58.650Z,6.08
2022-12-04T15:28:13.224Z,6.12
2022-12-04T15:31:22.699Z,6.11
2022-12-04T15:34:48.818Z,6.09
2022-12-04T15:37:51.723Z,6.03
2022-12-04T15:40:59.357Z,6.05
2022-12-04T15:44:02.840Z,6.05
2022-12-04T15:47:17.708Z,5.93
2022-12-04T15:50:27.167Z,5.91
2022-12-04T15:53:32.805Z,5.93
2022-12-04T15:56:35.292Z,6.00
2022-12-04T15:59:37.458Z,5.95
2022-12-04T16:02:42.202Z,6.06
2022-12-04T16:05:44.658Z,6.13
2022-12-04T16:08:52.735Z,6.19
2022-12-04T16:12:00.573Z,6.23
2022-12-04T16:15:04.657Z,6.34
2022-12-04T16:18:11.777Z,6.35
2022-12-04T16:21:17.540Z,6.35
2022-12-04T16:24:20.584Z,6.39
2022-12-04T16:27:27.382Z,6.43
2022-12-04T16:30:32.434Z,6.42
2022-12-04T16:33:34.994Z,6.39
2022-12-04T16:36:37.341Z,6.27
2022-12-04T16:39:41.636Z,6.36
2022-12-04T16:42:44.462Z,6.17
2022-12-04T16:45:51.183Z,6.17
2022-12-04T16:48:53.717Z,6.18
2022-12-04T16:51:56.377Z,6.00
2022-12-04T16:55:04.289Z,6.02
2022-12-04T16:58:08.273Z,5.95
2022-12-04T17:01:19.894Z,5.80
2022-12-04T17:04:22.632Z,5.81
2022-12-04T17:07:25.149Z,5.60
2022-12-04T17:10:27.618Z,5.69
2022-12-04T17:13:30.654Z,5.59
2022-12-04T17:16:37.056Z,5.57
2022-12-04T17:19:39.794Z,5.55
2022-12-04T17:22:42.541Z,5.40
2022-12-04T17:25:45.139Z,5.43
2022-12-04T17:28:51.765Z,5.34
2022-12-04T17:31:54.284Z,5.26
2022-12-04T17:34:57.395Z,5.41
2022-12-04T17:38:05.585Z,5.42
2022-12-04T17:41:13.732Z,5.37
2022-12-04T17:44:16.356Z,5.44
2022-12-04T17:47:18.857Z,5.40
2022-12-04T17:50:21.332Z,5.36
2022-12-04T17:53:23.719Z,5.23
2022-12-04T17:56:26.320Z,5.30
2022-12-04T17:59:30.406Z,5.41
2022-12-04T18:02:33.537Z,5.34
2022-12-04T18:05:36.036Z,5.48
2022-12-04T18:08:38.990Z,5.39
2022-12-04T18:11:43.916Z,5.46
2022-12-04T18:14:46.403Z,5.47
2022-12-04T18:17:49.007Z,5.39
2022-12-04T18:21:00.656Z,5.40
2022-12-04T18:24:05.627Z,5.37
2022-12-04T18:27:08.867Z,5.40
2022-12-04T18:30:12.113Z,5.41
2022-12-04T18:33:18.844Z,5.33
2022-12-04T18:36:24.151Z,5.32
2022-12-04T18:39:27.833Z,5.31
2022-12-04T18:42:31.235Z,5.29
2022-12-04T18:45:33.963Z,5.45
2022-12-04T18:48:38.866Z,5.38
2022-12-04T18:51:49.200Z,5.49
2022-12-04T18:54:54.056Z,5.37
2022-12-04T18:57:57.161Z,5.44
2022-12-04T19:01:08.055Z,5.55
2022-12-04T19:04:13.273Z,5.45
2022-12-04T19:07:16.669Z,5.50
2022-12-04T19:10:21.674Z,5.48
2022-12-04T19:13:26.650Z,5.32
2022-12-04T19:16:30.805Z,5.26
2022-12-04T19:19:34.544Z,5.31
2022-12-04T19:22:40.518Z,5.14
2022-12-04T19:25:44.918Z,5.10
2022-12-04T19:28:49.564Z,5.12
2022-12-04T19:31:59.003Z,5.15
2022-12-04T19:35:04.019Z,5.10
2022-12-04T19:38:07.494Z,4.97
2022-12-04T19:41:20.265Z,5.04
2022-12-04T19:44:47.969Z,5.07
2022-12-04T19:47:47.676Z,5.07
2022-12-04T19:50:51.200Z,5.14
2022-12-04T19:53:55.185Z,5.12
2022-12-04T19:56:58.732Z,5.02
2022-12-04T20:00:01.867Z,4.97
2022-12-04T20:03:04.717Z,5.06
2022-12-04T20:06:10.441Z,4.89
2022-12-04T20:09:15.899Z,4.87
2022-12-04T20:12:18.427Z,4.75
2022-12-04T20:15:21.221Z,4.76
2022-12-04T20:18:24.104Z,4.67
2022-12-04T20:21:30.907Z,4.49
2022-12-04T20:24:34.491Z,4.65
2022-12-04T20:27:36.972Z,4.62
2022-12-04T20:30:39.411Z,4.49
2022-12-04T20:33:47.011Z,4.61
2022-12-04T20:36:50.226Z,4.70
2022-12-04T20:39:54.671Z,4.84
2022-12-04T20:42:58.782Z,4.73
2022-12-04T20:46:02.031Z,4.56
2022-12-04T20:49:08.915Z,4.73
2022-12-04T20:52:11.657Z,4.71
2022-12-04T20:55:14.058Z,4.76
2022-12-04T20:58:16.420Z,4.74
2022-12-04T21:01:19.332Z,4.77
2022-12-04T21:04:22.318Z,4.75
2022-12-04T21:07:24.672Z,4.72
2022-12-04T21:10:27.077Z,4.82
2022-12-04T21:13:48.129Z,4.94
2022-12-04T21:16:50.348Z,4.94
2022-12-04T21:19:52.740Z,5.02
2022-12-04T21:22:55.054Z,5.03
2022-12-04T21:25:57.185Z,5.03
2022-12-04T21:29:00.360Z,5.10
2022-12-04T21:32:02.772Z,4.92
2022-12-04T21:35:05.226Z,4.92
2022-12-04T21:38:07.370Z,4.89
2022-12-04T21:41:09.895Z,4.88
2022-12-04T21:44:18.009Z,4.87
2022-12-04T21:47:20.163Z,4.95
2022-12-04T21:50:22.431Z,4.93
2022-12-04T21:53:24.708Z,4.93
2022-12-04T21:56:27.494Z,4.98
2022-12-04T21:59:29.720Z,4.83
2022-12-04T22:02:32.589Z,4.87
2022-12-04T22:05:34.877Z,4.86
2022-12-04T22:08:38.757Z,4.83
2022-12-04T22:11:46.259Z,4.90
2022-12-04T22:14:48.413Z,5.12
2022-12-04T22:17:50.545Z,5.06
2022-12-04T22:20:52.689Z,4.97
2022-12-04T22:23:59.354Z,5.03
2022-12-04T22:27:01.489Z,4.90
2022-12-04T22:30:04.549Z,4.85
2022-12-04T22:33:06.935Z,4.89
2022-12-04T22:36:12.970Z,4.79
2022-12-04T22:39:15.101Z,4.76
2022-12-04T22:42:17.278Z,4.74
2022-12-04T22:45:19.397Z,4.80
2022-12-04T22:48:21.915Z,4.77
2022-12-04T22:51:24.235Z,4.70
2022-12-04T22:54:26.381Z,4.68
2022-12-04T22:57:29.067Z,4.71
2022-12-04T23:00:31.179Z,4.68
2022-12-04T23:03:33.723Z,4.72
2022-12-04T23:06:36.069Z,4.65
2022-12-04T23:09:39.030Z,4.70
2022-12-04T23:12:41.316Z,4.57
2022-12-04T23:15:43.892Z,4.64
2022-12-04T23:18:46.134Z,4.71
2022-12-04T23:21:55.007Z,4.61
2022-12-04T23:24:58.923Z,4.63
2022-12-04T23:28:01.069Z,4.58
2022-12-04T23:31:03.972Z,4.55
2022-12-04T23:34:07.330Z,4.48
2022-12-04T23:37:09.493Z,4.57
2022-12-04T23:40:12.241Z,4.50
2022-12-04T23:43:15.762Z,4.46
2022-12-04T23:46:20.658Z,4.48
2022-12-04T23:49:22.868Z,4.49
2022-12-04T23:52:25.023Z,4.51
2022-12-04T23:55:32.524Z,4.55
2022-12-04T23:58:37.164Z,4.55
